Time,TemperatureF,DewpointF,PressureIn,WindDirection,WindDirectionDegrees,WindSpeedMPH,WindSpeedGustMPH,Humidity,HourlyPrecipIn,Conditions,Clouds,dailyrainin,SoftwareType,DateUTC
2013-03-07 00:02:00,49.0,41.0,30.06,NE,36,0.0,0.0,73,0.00,,,0.07,,2013-03-07 05:02:00,
2013-03-07 00:12:00,49.0,41.0,30.06,NE,36,0.0,0.0,73,0.00,,,0.07,,2013-03-07 05:12:00,
2013-03-07 00:22:00,48.0,40.0,30.07,NE,36,0.0,0.0,74,0.00,,,0.07,,2013-03-07 05:22:00,
2013-03-07 00:32:00,47.0,39.0,30.07,North,11,0.0,0.0,74,0.00,,,0.07,,2013-03-07 05:32:00,
2013-03-07 00:42:00,47.0,39.0,30.07,North,11,0.0,0.0,74,0.00,,,0.07,,2013-03-07 05:42:00,
2013-03-07 00:52:00,47.0,39.0,30.06,NNE,16,0.0,0.0,75,0.00,,,0.07,,2013-03-07 05:52:00,
2013-03-07 01:01:00,46.0,39.0,30.06,NNE,33,0.0,0.0,76,0.00,,,0.07,,2013-03-07 06:01:00,
2013-03-07 01:11:00,46.0,39.0,30.06,NNE,33,0.0,0.0,76,0.00,,,0.07,,2013-03-07 06:11:00,
2013-03-07 01:22:00,46.0,40.0,30.07,NNE,33,0.0,0.0,78,0.00,,,0.07,,2013-03-07 06:22:00,
2013-03-07 01:32:00,45.0,39.0,30.07,NNE,21,0.0,0.0,78,0.00,,,0.07,,2013-03-07 06:32:00,
2013-03-07 01:42:00,45.0,39.0,30.07,NNE,21,0.0,0.0,78,0.00,,,0.07,,2013-03-07 06:42:00,
2013-03-07 01:52:00,45.0,39.0,30.07,NNE,26,0.0,0.0,78,0.00,,,0.07,,2013-03-07 06:52:00,
2013-03-07 02:01:00,45.0,39.0,30.07,NNE,30,0.0,0.0,79,0.00,,,0.07,,2013-03-07 07:01:00,
2013-03-07 02:11:00,45.0,39.0,30.07,NNE,30,0.0,0.0,79,0.00,,,0.07,,2013-03-07 07:11:00,
2013-03-07 02:22:00,44.0,38.0,30.07,North,351,0.0,1.0,78,0.00,,,0.07,,2013-03-07 07:22:00,
2013-03-07 02:32:00,44.0,37.0,30.06,North,5,1.0,3.0,77,0.00,,,0.07,,2013-03-07 07:32:00,
2013-03-07 02:43:00,44.0,37.0,30.06,North,5,1.0,3.0,77,0.00,,,0.07,,2013-03-07 07:43:00,
2013-03-07 02:53:00,44.0,36.0,30.06,NNE,17,1.0,2.0,74,0.00,,,0.07,,2013-03-07 07:53:00,
2013-03-07 03:03:00,44.0,35.0,30.06,North,5,0.0,2.0,70,0.00,,,0.07,,2013-03-07 08:03:00,
2013-03-07 03:12:00,44.0,35.0,30.06,North,5,0.0,2.0,70,0.00,,,0.07,,2013-03-07 08:12:00,
2013-03-07 03:23:00,44.0,34.0,30.05,North,355,1.0,5.0,67,0.00,,,0.07,,2013-03-07 08:23:00,
2013-03-07 03:33:00,45.0,34.0,30.06,NE,39,0.0,0.0,64,0.00,,,0.07,,2013-03-07 08:33:00,
2013-03-07 03:44:00,45.0,34.0,30.06,NE,39,0.0,0.0,64,0.00,,,0.07,,2013-03-07 08:44:00,
2013-03-07 03:54:00,44.0,32.0,30.06,North,11,0.0,3.0,63,0.00,,,0.07,,2013-03-07 08:54:00,
2013-03-07 04:03:00,44.0,32.0,30.06,NNE,17,1.0,3.0,63,0.00,,,0.07,,2013-03-07 09:03:00,
2013-03-07 04:13:00,44.0,32.0,30.06,NNE,17,1.0,3.0,63,0.00,,,0.07,,2013-03-07 09:13:00,
2013-03-07 04:23:00,44.0,32.0,30.06,WNW,288,0.0,1.0,62,0.00,,,0.07,,2013-03-07 09:23:00,
2013-03-07 04:33:00,44.0,32.0,30.06,North,5,2.0,4.0,62,0.00,,,0.07,,2013-03-07 09:33:00,
2013-03-07 04:43:00,44.0,32.0,30.06,North,5,2.0,4.0,62,0.00,,,0.07,,2013-03-07 09:43:00,
2013-03-07 04:53:00,44.0,32.0,30.07,North,360,0.0,2.0,63,0.00,,,0.07,,2013-03-07 09:53:00,
2013-03-07 05:03:00,44.0,33.0,30.07,NNE,20,3.0,7.0,64,0.00,,,0.07,,2013-03-07 10:03:00,
2013-03-07 05:13:00,44.0,33.0,30.07,NNE,20,3.0,7.0,64,0.00,,,0.07,,2013-03-07 10:13:00,
2013-03-07 05:23:00,44.0,32.0,30.07,NNE,15,2.0,6.0,63,0.00,,,0.03,,2013-03-07 10:23:00,
2013-03-07 05:33:00,44.0,32.0,30.08,NNW,336,0.0,1.0,63,0.00,,,0.02,,2013-03-07 10:33:00,
2013-03-07 05:43:00,44.0,32.0,30.08,NNW,336,0.0,1.0,63,0.00,,,0.02,,2013-03-07 10:43:00,
2013-03-07 05:53:00,44.0,33.0,30.08,NNE,22,1.0,4.0,64,0.00,,,0.02,,2013-03-07 10:53:00,
2013-03-07 06:03:00,43.0,32.0,30.08,NNE,19,1.0,5.0,65,0.00,,,0.02,,2013-03-07 11:03:00,
2013-03-07 06:12:00,43.0,32.0,30.08,NNE,19,1.0,5.0,65,0.00,,,0.02,,2013-03-07 11:12:00,
2013-03-07 06:23:00,43.0,32.0,30.09,NNE,21,1.0,5.0,65,0.00,,,0.02,,2013-03-07 11:23:00,
2013-03-07 06:33:00,42.0,31.0,30.09,North,9,1.0,4.0,66,0.00,,,0.00,,2013-03-07 11:33:00,
2013-03-07 06:43:00,42.0,31.0,30.09,North,9,1.0,4.0,66,0.00,,,0.00,,2013-03-07 11:43:00,
2013-03-07 06:54:00,42.0,32.0,30.09,North,5,1.0,5.0,67,0.00,,,0.00,,2013-03-07 11:54:00,
2013-03-07 07:03:00,42.0,32.0,30.09,NE,41,1.0,3.0,68,0.00,,,0.00,,2013-03-07 12:03:00,
2013-03-07 07:12:00,42.0,32.0,30.09,NE,41,1.0,3.0,68,0.00,,,0.00,,2013-03-07 12:12:00,
2013-03-07 07:23:00,41.0,32.0,30.10,NNE,23,1.0,4.0,69,0.00,,,0.00,,2013-03-07 12:23:00,
2013-03-07 07:33:00,41.0,32.0,30.10,NNE,33,1.0,3.0,70,0.00,,,0.00,,2013-03-07 12:33:00,
2013-03-07 07:43:00,41.0,32.0,30.10,NNE,33,1.0,3.0,70,0.00,,,0.00,,2013-03-07 12:43:00,
2013-03-07 07:53:00,41.0,32.0,30.11,NNE,22,2.0,6.0,71,0.00,,,0.00,,2013-03-07 12:53:00,
2013-03-07 08:03:00,43.0,34.0,30.11,NE,40,2.0,5.0,71,0.00,,,0.00,,2013-03-07 13:03:00,
2013-03-07 08:12:00,43.0,34.0,30.11,NE,40,2.0,5.0,71,0.00,,,0.00,,2013-03-07 13:12:00,
2013-03-07 08:23:00,45.0,35.0,30.12,NNE,28,4.0,6.0,68,0.00,,,0.00,,2013-03-07 13:23:00,
2013-03-07 08:32:00,47.0,34.0,30.12,NNW,336,5.0,9.0,61,0.00,,,0.00,,2013-03-07 13:32:00,
2013-03-07 08:42:00,47.0,34.0,30.12,NNW,336,5.0,9.0,61,0.00,,,0.00,,2013-03-07 13:42:00,
2013-03-07 08:53:00,50.0,34.0,30.13,NNE,20,3.0,6.0,55,0.00,,,0.00,,2013-03-07 13:53:00,
2013-03-07 09:02:00,51.0,34.0,30.14,NNE,32,6.0,12.0,53,0.00,,,0.00,,2013-03-07 14:02:00,
2013-03-07 09:12:00,51.0,34.0,30.14,NNE,32,6.0,12.0,53,0.00,,,0.00,,2013-03-07 14:12:00,
2013-03-07 09:23:00,52.0,34.0,30.14,NE,40,7.0,10.0,50,0.00,,,0.00,,2013-03-07 14:23:00,
2013-03-07 09:33:00,53.0,34.0,30.14,NE,40,6.0,10.0,49,0.00,,,0.00,,2013-03-07 14:33:00,
2013-03-07 09:42:00,53.0,34.0,30.14,NE,40,6.0,10.0,49,0.00,,,0.00,,2013-03-07 14:42:00,
2013-03-07 09:54:00,54.0,34.0,30.14,NE,38,3.0,6.0,47,0.00,,,0.00,,2013-03-07 14:54:00,
2013-03-07 10:03:00,55.0,33.0,30.15,NE,38,1.0,4.0,43,0.00,,,0.00,,2013-03-07 15:03:00,
2013-03-07 10:12:00,55.0,33.0,30.15,NE,38,1.0,4.0,43,0.00,,,0.00,,2013-03-07 15:12:00,
2013-03-07 10:23:00,56.0,35.0,30.15,NNW,347,0.0,2.0,45,0.00,,,0.00,,2013-03-07 15:23:00,
2013-03-07 10:32:00,57.0,33.0,30.15,NNE,26,2.0,6.0,40,0.00,,,0.00,,2013-03-07 15:32:00,
2013-03-07 10:42:00,57.0,33.0,30.15,NNE,26,2.0,6.0,40,0.00,,,0.00,,2013-03-07 15:42:00,
2013-03-07 10:53:00,58.0,34.0,30.15,NE,39,2.0,6.0,40,0.00,,,0.00,,2013-03-07 15:53:00,
2013-03-07 11:02:00,58.0,33.0,30.15,WNW,297,2.0,7.0,39,0.00,,,0.00,,2013-03-07 16:02:00,
2013-03-07 11:13:00,58.0,33.0,30.15,WNW,297,2.0,7.0,39,0.00,,,0.00,,2013-03-07 16:13:00,
2013-03-07 11:24:00,60.0,36.0,30.15,North,355,0.0,0.0,40,0.00,,,0.00,,2013-03-07 16:24:00,
2013-03-07 11:33:00,60.0,34.0,30.14,NNE,23,2.0,8.0,38,0.00,,,0.00,,2013-03-07 16:33:00,
2013-03-07 11:43:00,60.0,34.0,30.14,NNE,23,2.0,8.0,38,0.00,,,0.00,,2013-03-07 16:43:00,
2013-03-07 11:53:00,62.0,33.0,30.15,NNE,18,6.0,10.0,34,0.00,,,0.00,,2013-03-07 16:53:00,
2013-03-07 12:02:00,63.0,36.0,30.14,WNW,288,1.0,7.0,36,0.00,,,0.00,,2013-03-07 17:02:00,
2013-03-07 12:12:00,63.0,36.0,30.14,WNW,288,1.0,7.0,36,0.00,,,0.00,,2013-03-07 17:12:00,
2013-03-07 12:23:00,62.0,34.0,30.14,ESE,105,4.0,8.0,35,0.00,,,0.00,,2013-03-07 17:23:00,
2013-03-07 12:33:00,65.0,36.0,30.14,NNE,32,0.0,1.0,34,0.00,,,0.00,,2013-03-07 17:33:00,
2013-03-07 12:43:00,65.0,36.0,30.14,NNE,32,0.0,1.0,34,0.00,,,0.00,,2013-03-07 17:43:00,
2013-03-07 12:54:00,64.0,34.0,30.13,NE,53,2.0,6.0,33,0.00,,,0.00,,2013-03-07 17:54:00,
2013-03-07 13:04:00,63.0,31.0,30.13,SSE,164,0.0,0.0,30,0.00,,,0.00,,2013-03-07 18:04:00,
2013-03-07 13:22:00,65.0,34.0,30.12,ENE,65,1.0,2.0,32,0.00,,,0.00,,2013-03-07 18:22:00,
2013-03-07 13:32:00,67.0,38.0,30.11,NNW,342,2.0,5.0,35,0.00,,,0.00,,2013-03-07 18:32:00,
2013-03-07 13:42:00,67.0,38.0,30.11,NNW,342,2.0,5.0,35,0.00,,,0.00,,2013-03-07 18:42:00,
2013-03-07 13:53:00,68.0,36.0,30.10,NNW,341,4.0,9.0,31,0.00,,,0.00,,2013-03-07 18:53:00,
2013-03-07 14:03:00,68.0,37.0,30.09,NNE,15,0.0,0.0,32,0.00,,,0.00,,2013-03-07 19:03:00,
2013-03-07 14:12:00,68.0,37.0,30.09,NNE,15,0.0,0.0,32,0.00,,,0.00,,2013-03-07 19:12:00,
2013-03-07 14:23:00,70.0,38.0,30.09,WNW,283,1.0,2.0,31,0.00,,,0.00,,2013-03-07 19:23:00,
2013-03-07 14:35:00,69.0,38.0,30.09,NNW,334,5.0,8.0,32,0.00,,,0.00,,2013-03-07 19:35:00,
2013-03-07 14:43:00,69.0,38.0,30.09,NNW,334,5.0,8.0,32,0.00,,,0.00,,2013-03-07 19:43:00,
2013-03-07 14:53:00,67.0,37.0,30.08,WNW,301,1.0,5.0,33,0.00,,,0.00,,2013-03-07 19:53:00,
2013-03-07 15:02:00,67.0,35.0,30.08,West,279,5.0,7.0,31,0.00,,,0.00,,2013-03-07 20:02:00,
2013-03-07 15:13:00,67.0,35.0,30.08,West,279,5.0,7.0,31,0.00,,,0.00,,2013-03-07 20:13:00,
2013-03-07 15:22:00,67.0,36.0,30.08,SW,217,1.0,4.0,32,0.00,,,0.00,,2013-03-07 20:22:00,
2013-03-07 15:33:00,68.0,36.0,30.08,WNW,288,1.0,2.0,31,0.00,,,0.00,,2013-03-07 20:33:00,
2013-03-07 15:43:00,68.0,36.0,30.08,WNW,288,1.0,2.0,31,0.00,,,0.00,,2013-03-07 20:43:00,
2013-03-07 15:54:00,68.0,39.0,30.08,West,263,3.0,10.0,35,0.00,,,0.00,,2013-03-07 20:54:00,
2013-03-07 16:03:00,66.0,40.0,30.08,North,355,6.0,9.0,38,0.00,,,0.00,,2013-03-07 21:03:00,
2013-03-07 16:12:00,66.0,40.0,30.08,North,355,6.0,9.0,38,0.00,,,0.00,,2013-03-07 21:12:00,
2013-03-07 16:23:00,65.0,39.0,30.08,NW,305,8.0,10.0,39,0.00,,,0.00,,2013-03-07 21:23:00,
2013-03-07 16:33:00,65.0,41.0,30.08,WNW,293,10.0,12.0,41,0.00,,,0.00,,2013-03-07 21:33:00,
2013-03-07 16:43:00,65.0,41.0,30.08,WNW,293,10.0,12.0,41,0.00,,,0.00,,2013-03-07 21:43:00,
2013-03-07 16:53:00,64.0,42.0,30.08,West,273,4.0,8.0,44,0.00,,,0.00,,2013-03-07 21:53:00,
2013-03-07 17:02:00,63.0,40.0,30.08,WNW,301,3.0,6.0,43,0.00,,,0.00,,2013-03-07 22:02:00,
2013-03-07 17:12:00,63.0,40.0,30.08,WNW,301,3.0,6.0,43,0.00,,,0.00,,2013-03-07 22:12:00,
2013-03-07 17:23:00,62.0,39.0,30.08,West,271,6.0,10.0,43,0.00,,,0.00,,2013-03-07 22:23:00,
2013-03-07 17:33:00,61.0,41.0,30.08,West,281,7.0,10.0,47,0.00,,,0.00,,2013-03-07 22:33:00,
2013-03-07 17:43:00,61.0,41.0,30.08,West,281,7.0,10.0,47,0.00,,,0.00,,2013-03-07 22:43:00,
2013-03-07 17:53:00,60.0,41.0,30.07,West,281,1.0,6.0,49,0.00,,,0.00,,2013-03-07 22:53:00,
2013-03-07 18:13:00,60.0,42.0,30.08,NW,325,0.0,1.0,52,0.00,,,0.00,,2013-03-07 23:13:00,
2013-03-07 18:22:00,59.0,42.0,30.08,West,281,2.0,5.0,54,0.00,,,0.00,,2013-03-07 23:22:00,
2013-03-07 18:54:00,58.0,42.0,30.09,WNW,300,1.0,4.0,55,0.00,,,0.00,,2013-03-07 23:54:00,
2013-03-07 19:04:00,57.0,42.0,30.09,WNW,288,2.0,5.0,57,0.00,,,0.00,,2013-03-08 00:04:00,
2013-03-07 19:13:00,57.0,42.0,30.09,WNW,288,2.0,5.0,57,0.00,,,0.00,,2013-03-08 00:13:00,
2013-03-07 19:23:00,56.0,42.0,30.10,WNW,295,3.0,5.0,60,0.00,,,0.00,,2013-03-08 00:23:00,
2013-03-07 19:34:00,55.0,43.0,30.10,NW,306,5.0,6.0,63,0.00,,,0.00,,2013-03-08 00:34:00,
2013-03-07 19:44:00,55.0,43.0,30.10,NW,306,5.0,6.0,63,0.00,,,0.00,,2013-03-08 00:44:00,
2013-03-07 19:54:00,54.0,42.0,30.11,WNW,294,1.0,4.0,64,0.00,,,0.00,,2013-03-08 00:54:00,
2013-03-07 20:02:00,54.0,43.0,30.11,WNW,289,4.0,6.0,66,0.00,,,0.00,,2013-03-08 01:02:00,
2013-03-07 20:11:00,54.0,43.0,30.11,WNW,289,4.0,6.0,66,0.00,,,0.00,,2013-03-08 01:11:00,
2013-03-07 20:22:00,53.0,43.0,30.11,NW,306,2.0,3.0,68,0.00,,,0.00,,2013-03-08 01:22:00,
2013-03-07 20:33:00,52.0,42.0,30.12,NW,310,0.0,0.0,69,0.00,,,0.00,,2013-03-08 01:33:00,
2013-03-07 20:42:00,52.0,42.0,30.12,NW,310,0.0,0.0,69,0.00,,,0.00,,2013-03-08 01:42:00,
2013-03-07 20:52:00,51.0,42.0,30.12,WNW,284,2.0,3.0,71,0.00,,,0.00,,2013-03-08 01:52:00,
2013-03-07 21:01:00,51.0,42.0,30.12,NW,318,0.0,0.0,71,0.00,,,0.00,,2013-03-08 02:01:00,
2013-03-07 21:12:00,50.0,41.0,30.13,NW,304,0.0,0.0,71,0.00,,,0.00,,2013-03-08 02:12:00,
2013-03-07 21:22:00,50.0,41.0,30.13,NW,304,0.0,0.0,71,0.00,,,0.00,,2013-03-08 02:22:00,
2013-03-07 21:32:00,49.0,40.0,30.13,NW,315,0.0,0.0,72,0.00,,,0.00,,2013-03-08 02:32:00,
2013-03-07 21:42:00,49.0,40.0,30.13,NW,315,0.0,0.0,72,0.00,,,0.00,,2013-03-08 02:42:00,
2013-03-07 21:53:00,49.0,41.0,30.14,NW,315,0.0,0.0,73,0.00,,,0.00,,2013-03-08 02:53:00,
2013-03-07 22:02:00,48.0,40.0,30.14,NW,315,0.0,0.0,74,0.00,,,0.00,,2013-03-08 03:02:00,
2013-03-07 22:12:00,48.0,40.0,30.14,NW,315,0.0,0.0,74,0.00,,,0.00,,2013-03-08 03:12:00,
2013-03-07 22:22:00,47.0,39.0,30.14,NW,315,0.0,0.0,74,0.00,,,0.00,,2013-03-08 03:22:00,
2013-03-07 22:32:00,47.0,39.0,30.14,NW,315,0.0,0.0,75,0.00,,,0.00,,2013-03-08 03:32:00,
2013-03-07 22:43:00,47.0,39.0,30.14,NW,315,0.0,0.0,75,0.00,,,0.00,,2013-03-08 03:43:00,
2013-03-07 22:53:00,47.0,40.0,30.14,NW,315,0.0,0.0,77,0.00,,,0.00,,2013-03-08 03:53:00,
2013-03-07 23:02:00,46.0,40.0,30.14,NW,315,0.0,0.0,79,0.00,,,0.00,,2013-03-08 04:02:00,
2013-03-07 23:11:00,46.0,40.0,30.14,NW,315,0.0,0.0,79,0.00,,,0.00,,2013-03-08 04:11:00,
2013-03-07 23:22:00,46.0,40.0,30.14,NW,315,0.0,0.0,80,0.00,,,0.00,,2013-03-08 04:22:00,
2013-03-07 23:32:00,45.0,39.0,30.14,NW,315,0.0,0.0,80,0.00,,,0.00,,2013-03-08 04:32:00,
2013-03-07 23:42:00,45.0,39.0,30.14,NW,315,0.0,0.0,80,0.00,,,0.00,,2013-03-08 04:42:00,
2013-03-07 23:52:00,45.0,40.0,30.13,NW,315,0.0,0.0,81,0.00,,,0.00,,2013-03-08 04:52:00,